Time;durP1;ratioP1;P1;durP2;ratioP2;P2;SDS_P1;SDS_P2;PMS_P1;PMS_P2;Temp;Humidity;BMP_temperature;BMP_pressure;BME280_temperature;BME280_humidity;BME280_pressure;Samples;Min_cycle;Max_cycle;Signal;HPM_P1;HPM_P2
2021/12/15 00:01:27;;;;;;;18.38;11.52;;;;;16.10;102664.00;;;;5027117;28;20204;-82
2021/12/15 00:03:55;;;;;;;18.52;12.40;;;;;16.10;102665.00;;;;5028623;28;20577;-82
2021/12/15 00:06:23;;;;;;;18.83;12.48;;;;;16.10;102669.00;;;;5027619;28;20216;-82
2021/12/15 00:08:53;;;;;;;19.55;11.57;;;;;16.10;102670.00;;;;5027742;28;20215;-82
2021/12/15 00:11:21;;;;;;;19.83;12.57;;;;;16.10;102668.00;;;;5031031;28;20196;-82
2021/12/15 00:13:52;;;;;;;20.48;12.25;;;;;16.10;102672.00;;;;5030664;28;20207;-82
2021/12/15 00:16:22;;;;;;;18.40;12.43;;;;;16.10;102668.00;;;;5020741;28;20532;-82
2021/12/15 00:18:49;;;;;;;17.58;12.13;;;;;16.10;102662.00;;;;5030407;28;20200;-82
2021/12/15 00:21:20;;;;;;;19.52;12.38;;;;;16.10;102665.00;;;;5031301;28;20215;-82
2021/12/15 00:23:49;;;;;;;18.33;12.18;;;;;16.10;102661.00;;;;5031101;28;20197;-82
2021/12/15 00:26:17;;;;;;;17.92;11.70;;;;;16.10;102657.00;;;;5030809;28;20327;-82
2021/12/15 00:28:45;;;;;;;19.02;12.73;;;;;16.10;102654.00;;;;5027041;28;20199;-83
2021/12/15 00:31:14;;;;;;;17.85;11.63;;;;;16.10;102656.00;;;;5028210;28;20204;-83
2021/12/15 00:33:44;;;;;;;19.40;12.27;;;;;16.10;102652.00;;;;5030894;28;20662;-82
2021/12/15 00:36:12;;;;;;;19.50;12.20;;;;;16.10;102650.00;;;;5030569;28;20200;-82
2021/12/15 00:38:40;;;;;;;22.98;13.23;;;;;16.10;102657.00;;;;5030299;28;20757;-83
2021/12/15 00:41:07;;;;;;;17.30;11.85;;;;;16.10;102657.00;;;;5030835;28;20204;-82
2021/12/15 00:43:35;;;;;;;21.73;12.27;;;;;16.10;102655.00;;;;5030186;28;20203;-82
2021/12/15 00:46:03;;;;;;;18.40;12.07;;;;;16.10;102647.00;;;;5029936;28;20216;-82
2021/12/15 00:48:31;;;;;;;17.33;10.95;;;;;16.10;102661.00;;;;5029536;28;20208;-82
2021/12/15 00:51:00;;;;;;;19.33;13.48;;;;;16.10;102657.00;;;;5030135;28;20196;-82
2021/12/15 00:53:28;;;;;;;18.02;11.50;;;;;16.10;102657.00;;;;5029848;28;20203;-82
2021/12/15 00:55:56;;;;;;;17.98;12.25;;;;;16.20;102658.00;;;;5029278;28;20228;-82
2021/12/15 00:58:24;;;;;;;18.38;11.20;;;;;16.20;102654.00;;;;5030072;28;20200;-82
2021/12/15 01:00:54;;;;;;;17.60;11.95;;;;;16.10;102656.00;;;;5030199;28;20204;-83
2021/12/15 01:03:23;;;;;;;21.00;13.50;;;;;16.20;102658.00;;;;5012037;28;20264;-82
2021/12/15 01:05:56;;;;;;;18.88;12.88;;;;;16.10;102657.00;;;;5028794;28;20204;-81
2021/12/15 01:08:28;;;;;;;19.42;12.63;;;;;16.10;102654.00;;;;5030724;28;20650;-82
2021/12/15 01:11:07;;;;;;;16.08;10.90;;;;;16.10;102655.00;;;;5029442;28;20207;-81
2021/12/15 01:21:56;;;;;;;17.63;11.93;;;;;16.10;102647.00;;;;5028005;28;20602;-82
2021/12/15 01:24:25;;;;;;;15.32;10.63;;;;;16.10;102653.00;;;;5026581;28;20207;-82
2021/12/15 01:26:52;;;;;;;17.58;11.80;;;;;16.10;102659.00;;;;5029365;28;20220;-82
2021/12/15 01:29:20;;;;;;;18.13;12.05;;;;;16.10;102663.00;;;;5029653;28;20211;-82
2021/12/15 01:31:47;;;;;;;17.48;11.80;;;;;16.10;102663.00;;;;5029172;28;20207;-82
2021/12/15 01:34:15;;;;;;;20.58;12.13;;;;;16.10;102664.00;;;;5029449;28;20197;-81
2021/12/15 01:36:42;;;;;;;17.98;12.02;;;;;16.10;102659.00;;;;5028761;28;20192;-82
2021/12/15 01:39:10;;;;;;;19.38;13.32;;;;;16.10;102663.00;;;;5028236;28;20693;-82
2021/12/15 01:41:39;;;;;;;19.77;12.07;;;;;16.10;102665.00;;;;5015183;28;20192;-83
2021/12/15 01:46:58;;;;;;;17.73;11.88;;;;;16.10;102666.00;;;;5028339;28;20236;-82
2021/12/15 01:49:31;;;;;;;16.85;11.98;;;;;16.10;102674.00;;;;5028523;28;20210;-82
2021/12/15 01:52:00;;;;;;;20.27;12.48;;;;;16.10;102665.00;;;;5029158;28;20200;-82
2021/12/15 01:54:31;;;;;;;19.30;12.23;;;;;16.10;102677.00;;;;5029406;28;20211;-81
2021/12/15 01:57:01;;;;;;;19.88;13.25;;;;;16.10;102673.00;;;;5021320;28;20243;-82
2021/12/15 01:59:30;;;;;;;19.88;12.63;;;;;16.10;102677.00;;;;5026222;28;20188;-82
2021/12/15 02:01:58;;;;;;;19.65;12.93;;;;;16.10;102673.00;;;;5029063;28;20235;-81
2021/12/15 02:04:25;;;;;;;18.95;12.20;;;;;16.10;102675.00;;;;5029341;28;20204;-82
2021/12/15 02:06:54;;;;;;;19.38;12.32;;;;;16.10;102682.00;;;;5028651;28;20212;-82
2021/12/15 02:09:40;;;;;;;19.80;13.57;;;;;16.10;102676.00;;;;5028941;28;20211;-82
2021/12/15 02:12:10;;;;;;;19.67;12.65;;;;;16.10;102683.00;;;;5029220;28;20748;-81
2021/12/15 02:14:38;;;;;;;18.65;12.68;;;;;16.10;102689.00;;;;5026850;28;20212;-82
2021/12/15 02:17:06;;;;;;;18.67;12.00;;;;;16.10;102687.00;;;;5028493;28;20239;-82
2021/12/15 02:19:33;;;;;;;23.10;13.23;;;;;16.10;102692.00;;;;5028928;28;20673;-82
2021/12/15 02:22:02;;;;;;;23.10;14.30;;;;;16.10;102687.00;;;;5028073;28;20192;-82
2021/12/15 02:24:33;;;;;;;21.63;13.82;;;;;16.10;102686.00;;;;5028302;28;20204;-82
2021/12/15 02:27:01;;;;;;;19.33;13.02;;;;;16.10;102682.00;;;;5028127;28;20224;-82
2021/12/15 02:29:32;;;;;;;21.10;13.93;;;;;16.10;102690.00;;;;5028317;28;20204;-82
2021/12/15 02:32:11;;;;;;;22.08;13.98;;;;;16.10;102683.00;;;;5017258;28;20227;-81
2021/12/15 02:37:04;;;;;;;19.60;13.30;;;;;16.10;102687.00;;;;5028235;28;20228;-81
2021/12/15 02:37:46;;;;;;;18.38;12.30;;;;;16.00;102693.00;;;;5027293;28;20198;-82
2021/12/15 02:40:18;;;;;;;19.85;14.20;;;;;16.00;102692.00;;;;5027883;28;20200;-82
2021/12/15 02:42:49;;;;;;;19.55;12.43;;;;;16.10;102688.00;;;;5027784;28;20659;-82
2021/12/15 02:45:20;;;;;;;24.38;14.38;;;;;16.00;102684.00;;;;5026581;28;20197;-81
2021/12/15 02:47:48;;;;;;;18.30;12.52;;;;;16.00;102684.00;;;;5023945;28;20228;-82
2021/12/15 02:50:19;;;;;;;21.83;13.65;;;;;16.00;102684.00;;;;5026890;28;20655;-82
2021/12/15 02:52:48;;;;;;;20.50;13.23;;;;;16.00;102685.00;;;;5027546;28;20203;-82
2021/12/15 02:55:16;;;;;;;23.50;14.68;;;;;16.10;102683.00;;;;5027924;28;20196;-82
2021/12/15 02:57:44;;;;;;;22.85;14.43;;;;;16.10;102681.00;;;;5027756;28;20203;-82
2021/12/15 03:00:22;;;;;;;22.58;14.63;;;;;16.10;102687.00;;;;5027816;28;20196;-81
2021/12/15 03:03:19;;;;;;;19.80;12.50;;;;;16.00;102682.00;;;;5017166;28;20766;-82
2021/12/15 03:05:51;;;;;;;19.40;12.82;;;;;16.10;102687.00;;;;5024783;28;20200;-82
2021/12/15 03:08:24;;;;;;;22.67;15.13;;;;;16.10;102690.00;;;;5028529;28;20232;-82
2021/12/15 03:16:25;;;;;;;21.52;14.55;;;;;16.00;102682.00;;;;5028226;28;20195;-82
2021/12/15 03:18:52;;;;;;;19.48;13.75;;;;;16.00;102684.00;;;;5028121;28;20200;-82
2021/12/15 03:21:24;;;;;;;20.58;13.70;;;;;16.00;102684.00;;;;5025142;28;20218;-81
2021/12/15 03:23:56;;;;;;;22.58;15.18;;;;;16.00;102683.00;;;;5008619;28;20210;-82
2021/12/15 03:26:28;;;;;;;26.02;14.63;;;;;16.00;102681.00;;;;5023577;28;20571;-82
2021/12/15 03:34:47;;;;;;;19.65;12.15;;;;;16.00;102682.00;;;;5021092;28;20269;-82
2021/12/15 03:37:26;;;;;;;20.48;13.80;;;;;16.00;102684.00;;;;5009151;28;20288;-82
2021/12/15 03:39:58;;;;;;;24.15;14.25;;;;;16.00;102683.00;;;;5021291;28;20197;-81
2021/12/15 03:42:30;;;;;;;23.30;13.63;;;;;16.00;102685.00;;;;5028288;28;20250;-81
2021/12/15 03:44:58;;;;;;;21.80;13.20;;;;;16.00;102689.00;;;;5029504;28;20370;-81
2021/12/15 03:47:29;;;;;;;23.60;15.30;;;;;16.00;102684.00;;;;5032045;28;20231;-82
2021/12/15 03:49:58;;;;;;;23.13;14.77;;;;;16.00;102699.00;;;;5032835;28;20196;-82
2021/12/15 03:52:26;;;;;;;18.88;13.00;;;;;16.00;102702.00;;;;5031531;28;20203;-81
2021/12/15 03:54:54;;;;;;;22.35;13.88;;;;;16.00;102693.00;;;;5031808;28;20203;-81
2021/12/15 03:57:22;;;;;;;19.52;13.32;;;;;16.00;102696.00;;;;5031763;28;20227;-81
2021/12/15 03:59:50;;;;;;;22.52;13.77;;;;;16.00;102697.00;;;;5032544;28;20740;-82
2021/12/15 04:02:20;;;;;;;21.83;13.88;;;;;16.00;102697.00;;;;5031835;28;20563;-82
2021/12/15 04:04:49;;;;;;;22.15;13.93;;;;;16.00;102703.00;;;;5031620;28;20200;-82
2021/12/15 04:07:17;;;;;;;20.35;13.60;;;;;16.00;102705.00;;;;5032070;28;20227;-81
2021/12/15 04:09:45;;;;;;;21.30;13.82;;;;;16.00;102703.00;;;;5030179;28;20197;-82
2021/12/15 04:12:15;;;;;;;23.40;14.93;;;;;16.00;102702.00;;;;5030765;28;20219;-82
2021/12/15 04:14:45;;;;;;;19.60;13.00;;;;;16.00;102701.00;;;;5015804;28;20193;-81
2021/12/15 04:17:29;;;;;;;20.88;14.02;;;;;16.00;102699.00;;;;5030688;28;20201;-81
2021/12/15 04:20:01;;;;;;;23.17;13.95;;;;;16.00;102704.00;;;;5031878;28;20290;-82
2021/12/15 04:22:28;;;;;;;22.23;13.95;;;;;16.10;102706.00;;;;5032142;28;20211;-82
2021/12/15 04:24:58;;;;;;;22.02;13.70;;;;;16.10;102715.00;;;;5031639;28;20290;-81
2021/12/15 04:27:27;;;;;;;21.98;13.93;;;;;16.10;102699.00;;;;5028911;28;20220;-81
2021/12/15 04:29:54;;;;;;;22.83;14.55;;;;;16.10;102713.00;;;;5025161;28;20216;-81
2021/12/15 04:32:27;;;;;;;22.98;13.57;;;;;16.00;102709.00;;;;5031879;28;20200;-81
2021/12/15 04:34:54;;;;;;;21.42;14.18;;;;;16.00;102706.00;;;;5031549;28;20208;-81
2021/12/15 04:37:21;;;;;;;19.95;13.65;;;;;16.00;102712.00;;;;5031261;28;20192;-81
2021/12/15 04:39:49;;;;;;;20.83;13.80;;;;;16.00;102707.00;;;;5031760;28;20208;-82
2021/12/15 04:42:18;;;;;;;20.92;14.13;;;;;16.00;102713.00;;;;5031668;28;20208;-82
2021/12/15 04:44:49;;;;;;;21.20;12.70;;;;;16.00;102706.00;;;;5031619;28;20837;-82
2021/12/15 04:47:16;;;;;;;21.95;13.82;;;;;16.00;102717.00;;;;5024871;28;20312;-82
2021/12/15 04:49:50;;;;;;;20.90;13.65;;;;;16.00;102726.00;;;;5030605;28;20677;-81
2021/12/15 04:52:19;;;;;;;20.67;13.35;;;;;16.00;102720.00;;;;5029723;28;20196;-82
2021/12/15 04:54:47;;;;;;;19.02;13.00;;;;;16.00;102721.00;;;;5030839;28;20192;-82
2021/12/15 04:57:15;;;;;;;19.83;13.05;;;;;16.00;102728.00;;;;5031421;28;20597;-82
2021/12/15 04:59:43;;;;;;;21.60;13.85;;;;;16.00;102729.00;;;;5030600;28;20235;-81
2021/12/15 05:02:13;;;;;;;20.73;13.05;;;;;16.00;102725.00;;;;5030552;28;20205;-82
2021/12/15 05:04:40;;;;;;;21.08;14.65;;;;;16.00;102725.00;;;;5019666;28;20216;-81
2021/12/15 05:07:08;;;;;;;21.30;13.27;;;;;16.00;102721.00;;;;5031074;28;20200;-82
2021/12/15 05:09:35;;;;;;;17.73;12.70;;;;;16.00;102727.00;;;;5030452;28;20192;-82
2021/12/15 05:12:03;;;;;;;22.35;13.57;;;;;16.00;102723.00;;;;5031324;28;20657;-82
2021/12/15 05:14:31;;;;;;;24.50;14.05;;;;;16.00;102727.00;;;;5030239;28;20578;-82
2021/12/15 05:16:58;;;;;;;21.38;13.82;;;;;16.00;102734.00;;;;5031137;28;20204;-81
2021/12/15 05:19:27;;;;;;;21.60;13.70;;;;;16.00;102731.00;;;;5030570;28;20199;-81
2021/12/15 05:21:57;;;;;;;21.90;14.02;;;;;16.00;102730.00;;;;5015416;28;20243;-81
2021/12/15 05:24:30;;;;;;;22.35;13.80;;;;;16.00;102730.00;;;;5014303;28;20188;-81
2021/12/15 05:27:00;;;;;;;23.48;13.95;;;;;16.00;102731.00;;;;5030073;28;20196;-81
2021/12/15 05:29:28;;;;;;;20.48;12.85;;;;;16.00;102730.00;;;;5026385;28;20225;-81
2021/12/15 05:31:55;;;;;;;17.67;11.40;;;;;16.00;102742.00;;;;5014553;28;20211;-81
2021/12/15 05:34:23;;;;;;;20.42;12.90;;;;;16.00;102737.00;;;;5011938;28;20200;-81
2021/12/15 05:36:53;;;;;;;22.20;11.93;;;;;16.00;102733.00;;;;5028497;28;20634;-82
2021/12/15 05:39:20;;;;;;;19.13;12.73;;;;;16.00;102731.00;;;;5026550;28;20203;-81
2021/12/15 05:41:49;;;;;;;22.63;13.82;;;;;16.00;102740.00;;;;5028974;28;20231;-81
2021/12/15 05:44:16;;;;;;;21.38;12.95;;;;;16.00;102734.00;;;;5029285;28;20250;-81
2021/12/15 05:46:43;;;;;;;16.42;11.70;;;;;16.10;102742.00;;;;5018607;28;20215;-81
2021/12/15 05:49:11;;;;;;;26.35;13.45;;;;;16.10;102740.00;;;;5029072;28;20216;-81
2021/12/15 05:51:39;;;;;;;20.00;13.23;;;;;16.10;102736.00;;;;5029372;28;20208;-81
2021/12/15 05:54:08;;;;;;;22.30;12.70;;;;;16.10;102731.00;;;;5028541;28;20201;-81
2021/12/15 05:56:36;;;;;;;20.95;12.27;;;;;16.10;102746.00;;;;5009522;28;20653;-81
2021/12/15 05:59:04;;;;;;;19.45;12.88;;;;;16.10;102740.00;;;;5009698;28;20208;-81
2021/12/15 06:01:32;;;;;;;21.05;12.27;;;;;16.10;102743.00;;;;5022090;28;20550;-81
2021/12/15 06:04:00;;;;;;;18.45;12.52;;;;;16.10;102755.00;;;;5027859;28;20591;-81
2021/12/15 06:06:28;;;;;;;20.35;12.40;;;;;16.10;102751.00;;;;5029492;28;20200;-81
2021/12/15 06:08:55;;;;;;;17.25;11.20;;;;;16.10;102746.00;;;;5028101;28;20307;-81
2021/12/15 06:11:24;;;;;;;21.95;13.40;;;;;16.10;102746.00;;;;5026442;28;20209;-81
2021/12/15 06:13:53;;;;;;;21.30;13.35;;;;;16.10;102755.00;;;;5028622;28;20207;-81
2021/12/15 06:16:23;;;;;;;19.50;11.70;;;;;16.10;102760.00;;;;5028191;28;20754;-81
2021/12/15 06:18:51;;;;;;;17.85;11.82;;;;;16.10;102760.00;;;;5026660;28;20383;-81
2021/12/15 06:21:20;;;;;;;24.83;12.15;;;;;16.10;102753.00;;;;5028409;28;20200;-81
2021/12/15 06:23:48;;;;;;;21.05;13.20;;;;;16.10;102763.00;;;;5027618;28;20722;-82
2021/12/15 06:26:17;;;;;;;19.60;11.80;;;;;16.10;102763.00;;;;5024187;28;20263;-81
2021/12/15 06:28:46;;;;;;;20.98;13.40;;;;;16.10;102752.00;;;;5027464;28;20216;-81
2021/12/15 06:31:16;;;;;;;17.77;11.40;;;;;16.10;102749.00;;;;5024133;28;20205;-82
2021/12/15 06:33:44;;;;;;;20.33;12.13;;;;;16.10;102754.00;;;;5022705;28;20208;-82
2021/12/15 06:36:14;;;;;;;22.48;12.77;;;;;16.10;102751.00;;;;5027839;28;20211;-82
2021/12/15 06:38:45;;;;;;;24.08;14.25;;;;;16.10;102751.00;;;;5027923;28;20189;-82
2021/12/15 06:41:14;;;;;;;21.52;11.77;;;;;16.10;102752.00;;;;5024079;28;20243;-81
2021/12/15 06:43:44;;;;;;;22.88;12.00;;;;;16.10;102754.00;;;;5021878;28;20205;-81
2021/12/15 06:46:36;;;;;;;19.90;12.40;;;;;16.10;102758.00;;;;5023019;28;20220;-81
2021/12/15 06:58:11;;;;;;;22.30;12.77;;;;;16.10;102771.00;;;;5017462;28;20328;-81
2021/12/15 07:00:31;;;;;;;21.30;12.27;;;;;16.10;102776.00;;;;5020551;28;20337;-81
2021/12/15 07:03:01;;;;;;;23.00;13.00;;;;;16.10;102782.00;;;;5022124;28;20192;-81
2021/12/15 07:05:30;;;;;;;24.13;12.38;;;;;16.10;102790.00;;;;5027015;28;20200;-81
2021/12/15 07:07:59;;;;;;;24.42;12.77;;;;;16.20;102787.00;;;;5028183;28;20196;-81
2021/12/15 07:10:30;;;;;;;23.85;12.43;;;;;16.10;102786.00;;;;5026528;28;20192;-81
2021/12/15 07:12:59;;;;;;;24.33;12.82;;;;;16.20;102792.00;;;;5021407;28;20189;-81
2021/12/15 07:15:26;;;;;;;24.05;13.63;;;;;16.20;102793.00;;;;5018995;28;20296;-82
2021/12/15 07:18:01;;;;;;;24.13;12.50;;;;;16.20;102792.00;;;;5020832;28;20208;-82
2021/12/15 07:20:39;;;;;;;21.42;11.80;;;;;16.20;102786.00;;;;5017687;28;20690;-82
2021/12/15 07:23:10;;;;;;;21.80;11.57;;;;;16.20;102788.00;;;;5017686;28;20275;-81
2021/12/15 07:25:40;;;;;;;20.38;12.23;;;;;16.20;102784.00;;;;5026380;28;20204;-81
2021/12/15 07:28:08;;;;;;;20.63;11.57;;;;;16.20;102782.00;;;;5014426;28;20209;-81
2021/12/15 07:30:37;;;;;;;21.70;11.82;;;;;16.20;102787.00;;;;5008376;28;20216;-82
2021/12/15 07:33:05;;;;;;;21.75;11.73;;;;;16.20;102778.00;;;;5027675;28;20663;-82
2021/12/15 07:35:35;;;;;;;22.77;12.55;;;;;16.20;102789.00;;;;5028188;28;20203;-82
2021/12/15 07:38:03;;;;;;;24.50;13.57;;;;;16.20;102788.00;;;;5013412;28;20215;-81
2021/12/15 07:40:31;;;;;;;23.05;13.02;;;;;16.20;102796.00;;;;5027095;28;20277;-82
2021/12/15 07:43:07;;;;;;;24.27;11.82;;;;;16.20;102793.00;;;;5027158;28;20207;-81
2021/12/15 07:45:38;;;;;;;22.17;12.52;;;;;16.10;102801.00;;;;5026312;28;20203;-81
2021/12/15 07:48:07;;;;;;;20.85;12.18;;;;;16.20;102808.00;;;;5026733;28;20583;-81
2021/12/15 07:50:37;;;;;;;26.60;14.32;;;;;16.20;102805.00;;;;5027771;28;20578;-81
2021/12/15 07:53:05;;;;;;;22.48;12.75;;;;;16.20;102810.00;;;;5027647;28;20204;-81
2021/12/15 07:55:33;;;;;;;22.65;12.88;;;;;16.20;102804.00;;;;5020359;28;20216;-81
2021/12/15 07:58:02;;;;;;;19.88;12.07;;;;;16.20;102796.00;;;;5027122;28;20204;-81
2021/12/15 08:00:30;;;;;;;22.80;13.25;;;;;16.20;102810.00;;;;5026380;28;20689;-81
2021/12/15 08:02:58;;;;;;;24.60;13.73;;;;;16.20;102803.00;;;;5016331;28;20204;-82
2021/12/15 08:05:26;;;;;;;26.25;13.38;;;;;16.20;102804.00;;;;5026818;28;20193;-82
2021/12/15 08:07:55;;;;;;;23.58;12.65;;;;;16.20;102802.00;;;;5023441;28;20204;-81
2021/12/15 08:10:23;;;;;;;22.58;12.73;;;;;16.20;102806.00;;;;5022094;28;20228;-82
2021/12/15 08:12:51;;;;;;;21.02;12.05;;;;;16.20;102810.00;;;;5022007;28;20927;-81
2021/12/15 08:15:20;;;;;;;20.90;11.98;;;;;16.20;102807.00;;;;5026983;28;20223;-82
2021/12/15 08:17:51;;;;;;;25.75;14.20;;;;;16.20;102809.00;;;;5024457;28;20211;-82
2021/12/15 08:20:21;;;;;;;18.95;11.88;;;;;16.20;102812.00;;;;5021401;28;20670;-82
2021/12/15 08:22:48;;;;;;;22.65;11.98;;;;;16.20;102810.00;;;;5026273;28;20208;-81
2021/12/15 08:25:19;;;;;;;21.48;11.75;;;;;16.20;102812.00;;;;5026532;28;20196;-82
2021/12/15 08:27:47;;;;;;;20.27;11.52;;;;;16.20;102810.00;;;;5021321;28;20237;-82
2021/12/15 08:30:19;;;;;;;22.23;12.40;;;;;16.20;102822.00;;;;5024869;28;20231;-81
2021/12/15 08:32:47;;;;;;;19.10;11.93;;;;;16.30;102819.00;;;;5025793;28;20804;-82
2021/12/15 08:35:16;;;;;;;21.95;11.85;;;;;16.30;102819.00;;;;5026548;28;20282;-81
2021/12/15 08:37:43;;;;;;;21.05;12.40;;;;;16.30;102827.00;;;;5028717;28;20197;-82
2021/12/15 08:40:12;;;;;;;22.65;13.05;;;;;16.30;102823.00;;;;5029745;28;20219;-82
2021/12/15 08:42:40;;;;;;;17.52;10.73;;;;;16.30;102821.00;;;;5027693;28;20203;-81
2021/12/15 08:45:09;;;;;;;18.80;12.25;;;;;16.30;102824.00;;;;5027472;28;20200;-81
2021/12/15 08:47:37;;;;;;;22.92;12.98;;;;;16.30;102833.00;;;;5030422;28;20224;-82
2021/12/15 08:50:09;;;;;;;22.15;11.23;;;;;16.30;102832.00;;;;5029042;28;20582;-82
2021/12/15 08:52:36;;;;;;;22.48;11.63;;;;;16.30;102827.00;;;;5029190;28;20196;-82
2021/12/15 08:55:06;;;;;;;21.17;11.45;;;;;16.30;102830.00;;;;5026038;28;20204;-81
2021/12/15 08:57:34;;;;;;;22.08;12.00;;;;;16.30;102828.00;;;;5028459;28;20220;-80
2021/12/15 09:00:04;;;;;;;20.20;11.80;;;;;16.30;102825.00;;;;5027067;28;20250;-81
2021/12/15 09:02:31;;;;;;;23.63;13.13;;;;;16.40;102825.00;;;;5022955;28;20197;-81
2021/12/15 09:04:59;;;;;;;19.38;11.50;;;;;16.30;102827.00;;;;5030142;28;20204;-82
2021/12/15 09:07:26;;;;;;;19.80;11.52;;;;;16.30;102815.00;;;;5029113;28;20193;-81
2021/12/15 09:09:53;;;;;;;22.10;12.80;;;;;16.30;102830.00;;;;5028421;28;20231;-81
2021/12/15 09:12:21;;;;;;;24.23;12.15;;;;;16.40;102827.00;;;;5030471;28;20204;-80
2021/12/15 09:14:48;;;;;;;18.38;11.45;;;;;16.40;102827.00;;;;5024501;28;20196;-81
2021/12/15 09:17:17;;;;;;;19.60;10.82;;;;;16.40;102836.00;;;;5028591;28;20666;-80
2021/12/15 09:19:44;;;;;;;17.70;10.75;;;;;16.40;102835.00;;;;5028775;28;20216;-80
2021/12/15 09:22:12;;;;;;;22.10;11.48;;;;;16.40;102844.00;;;;5023044;28;20200;-81
2021/12/15 09:24:40;;;;;;;22.48;11.18;;;;;16.40;102846.00;;;;5021660;28;20208;-81
2021/12/15 09:27:07;;;;;;;20.25;11.48;;;;;16.40;102851.00;;;;5027042;28;20676;-81
2021/12/15 09:29:34;;;;;;;18.80;11.25;;;;;16.50;102848.00;;;;5028678;28;20243;-81
2021/12/15 09:32:01;;;;;;;19.83;11.25;;;;;16.50;102849.00;;;;5028121;28;20204;-81
2021/12/15 09:34:30;;;;;;;17.50;10.23;;;;;16.50;102852.00;;;;5026564;28;20534;-83
2021/12/15 09:36:58;;;;;;;17.48;10.25;;;;;16.50;102852.00;;;;5024828;28;20200;-83
2021/12/15 09:39:26;;;;;;;21.65;11.40;;;;;16.50;102855.00;;;;5026386;28;20204;-83
2021/12/15 09:41:53;;;;;;;20.35;11.48;;;;;16.50;102850.00;;;;5024430;28;20287;-83
2021/12/15 09:44:24;;;;;;;20.98;12.30;;;;;16.50;102855.00;;;;5025094;28;20203;-82
2021/12/15 09:47:18;;;;;;;18.83;10.10;;;;;16.50;102861.00;;;;5027438;28;20307;-83
2021/12/15 10:03:52;;;;;;;19.33;11.13;;;;;16.50;102871.00;;;;5029265;28;20203;-81
2021/12/15 10:06:32;;;;;;;16.42;10.60;;;;;16.50;102876.00;;;;5030394;28;20192;-80
2021/12/15 10:11:56;;;;;;;19.50;10.98;;;;;16.60;102879.00;;;;5009888;28;20965;-81
2021/12/15 10:20:07;;;;;;;14.68;9.68;;;;;16.60;102872.00;;;;5008164;28;20266;-81
2021/12/15 10:22:41;;;;;;;18.88;10.40;;;;;16.70;102876.00;;;;5007646;28;20219;-81
2021/12/15 10:25:13;;;;;;;18.95;12.05;;;;;16.70;102876.00;;;;5012000;28;20246;-81
2021/12/15 10:27:45;;;;;;;13.82;10.20;;;;;16.70;102881.00;;;;5014388;28;20589;-80
2021/12/15 10:30:22;;;;;;;16.13;10.75;;;;;16.70;102872.00;;;;5027032;28;20270;-81
2021/12/15 10:32:52;;;;;;;13.43;9.02;;;;;16.70;102867.00;;;;5028645;28;20191;-81
2021/12/15 10:35:22;;;;;;;16.73;9.95;;;;;16.80;102874.00;;;;5029985;28;20200;-81
2021/12/15 10:38:18;;;;;;;15.20;10.85;;;;;16.70;102876.00;;;;5029535;28;20200;-81
2021/12/15 10:40:51;;;;;;;13.88;8.50;;;;;16.80;102870.00;;;;5029278;28;20208;-81
2021/12/15 10:43:19;;;;;;;14.10;9.90;;;;;16.80;102877.00;;;;5027097;28;20208;-81
2021/12/15 10:45:49;;;;;;;15.48;10.02;;;;;16.90;102883.00;;;;5009583;28;20208;-81
2021/12/15 10:48:35;;;;;;;14.60;9.88;;;;;16.90;102879.00;;;;5011594;28;20201;-81
2021/12/15 10:51:05;;;;;;;14.02;9.88;;;;;16.90;102882.00;;;;5028616;28;20216;-81
2021/12/15 10:53:36;;;;;;;13.57;9.68;;;;;16.90;102878.00;;;;5028084;28;20212;-81
2021/12/15 10:56:12;;;;;;;12.05;9.40;;;;;16.90;102878.00;;;;5029190;28;20278;-81
2021/12/15 10:58:41;;;;;;;13.70;9.27;;;;;16.90;102880.00;;;;5029027;28;20211;-81
2021/12/15 11:01:35;;;;;;;14.52;10.27;;;;;16.90;102878.00;;;;5026686;28;20220;-81
2021/12/15 11:04:04;;;;;;;12.32;9.05;;;;;17.00;102878.00;;;;5028894;28;20204;-81
2021/12/15 11:06:33;;;;;;;12.48;9.02;;;;;17.00;102877.00;;;;5026941;28;20203;-81
2021/12/15 11:09:17;;;;;;;15.75;10.10;;;;;16.90;102882.00;;;;5028702;28;20204;-81
2021/12/15 11:11:58;;;;;;;15.98;10.45;;;;;16.90;102878.00;;;;5029475;28;20204;-81
2021/12/15 11:14:29;;;;;;;16.83;9.98;;;;;17.00;102875.00;;;;5029058;28;20192;-80
2021/12/15 11:17:10;;;;;;;13.98;9.85;;;;;16.90;102880.00;;;;5027841;28;20283;-80
2021/12/15 11:19:50;;;;;;;12.07;9.15;;;;;16.90;102885.00;;;;5020351;28;20204;-79
2021/12/15 11:22:50;;;;;;;12.85;9.38;;;;;16.80;102895.00;;;;5026437;28;20199;-81
2021/12/15 11:25:38;;;;;;;13.95;8.90;;;;;16.80;102889.00;;;;5023485;28;20192;-79
2021/12/15 11:28:10;;;;;;;11.43;7.82;;;;;16.90;102889.00;;;;5024442;28;20192;-79
2021/12/15 11:30:42;;;;;;;11.80;7.82;;;;;17.00;102875.00;;;;5026155;28;20231;-79
2021/12/15 11:33:14;;;;;;;10.68;8.02;;;;;16.90;102883.00;;;;5023662;28;20207;-80
2021/12/15 11:35:44;;;;;;;12.25;8.77;;;;;16.90;102873.00;;;;5024992;28;20203;-79
2021/12/15 11:38:15;;;;;;;13.30;9.02;;;;;17.00;102872.00;;;;5023263;28;20259;-80
2021/12/15 11:40:49;;;;;;;11.68;8.35;;;;;17.00;102876.00;;;;5026785;28;20207;-80
2021/12/15 11:43:31;;;;;;;13.55;8.05;;;;;17.00;102884.00;;;;5024284;28;20200;-79
2021/12/15 11:45:59;;;;;;;14.98;9.07;;;;;17.10;102875.00;;;;5013105;28;20212;-81
2021/12/15 11:48:28;;;;;;;12.32;8.02;;;;;17.10;102875.00;;;;5025519;28;20203;-83
2021/12/15 11:50:58;;;;;;;9.05;6.97;;;;;17.10;102869.00;;;;5025296;28;20224;-82
2021/12/15 11:53:40;;;;;;;10.52;8.05;;;;;17.10;102870.00;;;;5007801;28;20209;-83
2021/12/15 11:56:31;;;;;;;13.23;8.18;;;;;17.10;102869.00;;;;5025594;28;20220;-81
2021/12/15 11:59:13;;;;;;;9.75;7.20;;;;;17.10;102865.00;;;;5025595;28;20195;-81
2021/12/15 12:01:53;;;;;;;10.18;7.43;;;;;17.20;102870.00;;;;5028388;28;20207;-81
2021/12/15 12:04:25;;;;;;;10.02;7.38;;;;;17.20;102869.00;;;;5027699;28;20204;-80
2021/12/15 12:06:57;;;;;;;10.82;7.07;;;;;17.20;102862.00;;;;5030498;28;20220;-81
2021/12/15 12:09:25;;;;;;;9.70;6.85;;;;;17.30;102869.00;;;;5031753;28;20204;-81
2021/12/15 12:11:56;;;;;;;11.20;7.15;;;;;17.30;102863.00;;;;5032717;28;20188;-81
2021/12/15 12:14:39;;;;;;;10.77;6.30;;;;;17.30;102860.00;;;;5031668;28;20189;-81
2021/12/15 12:17:12;;;;;;;9.90;5.97;;;;;17.30;102866.00;;;;5032205;28;20204;-81
2021/12/15 12:19:41;;;;;;;9.98;6.40;;;;;17.40;102878.00;;;;5031613;28;21023;-81
2021/12/15 12:22:11;;;;;;;9.93;6.07;;;;;17.40;102872.00;;;;5032188;28;20207;-81
2021/12/15 12:24:38;;;;;;;8.90;6.13;;;;;17.40;102882.00;;;;5031782;28;20666;-80
2021/12/15 12:27:07;;;;;;;11.73;6.80;;;;;17.40;102871.00;;;;5015268;28;20216;-81
2021/12/15 12:29:35;;;;;;;8.05;6.18;;;;;17.40;102869.00;;;;5011069;28;20659;-80
2021/12/15 12:32:03;;;;;;;8.18;5.65;;;;;17.50;102868.00;;;;5029148;28;20201;-81
2021/12/15 12:34:30;;;;;;;9.27;5.78;;;;;17.50;102867.00;;;;5030609;28;20204;-81
2021/12/15 12:36:57;;;;;;;8.75;6.03;;;;;17.50;102863.00;;;;5028250;28;20204;-80
2021/12/15 12:39:32;;;;;;;7.50;5.68;;;;;17.50;102859.00;;;;5029401;28;20200;-81
2021/12/15 12:41:59;;;;;;;9.80;5.93;;;;;17.50;102851.00;;;;5023278;28;20212;-81
2021/12/15 12:44:36;;;;;;;8.65;5.43;;;;;17.50;102852.00;;;;5028681;28;20287;-82
2021/12/15 12:47:10;;;;;;;10.07;6.68;;;;;17.50;102846.00;;;;5029804;28;20304;-81
2021/12/15 12:50:09;;;;;;;10.48;6.00;;;;;17.50;102854.00;;;;5026604;28;20292;-83
2021/12/15 13:01:20;;;;;;;8.70;6.00;;;;;17.60;102860.00;;;;5016471;28;20203;-81
2021/12/15 13:03:50;;;;;;;8.52;6.43;;;;;17.60;102855.00;;;;5029485;28;20199;-79
2021/12/15 13:06:21;;;;;;;10.38;6.60;;;;;17.60;102859.00;;;;5029690;28;20205;-80
2021/12/15 13:08:54;;;;;;;9.98;6.60;;;;;17.50;102848.00;;;;5030593;28;20207;-80
2021/12/15 13:11:34;;;;;;;9.02;6.10;;;;;17.50;102850.00;;;;5029882;28;20220;-80
2021/12/15 13:14:05;;;;;;;8.52;6.07;;;;;17.50;102852.00;;;;5029198;28;20656;-80